Cissna Park, Illinois
Current Conditions -  °F | °C
As of 4:50 AM on Friday 28 Nov 2014 (Local Time) from KTIP Reporting Station
Overcast Overcast  
Wind Chill: 14°   Ceiling: 7000
Heat Index: 21°   Visibility: 10mi
Dew Point: 15°   Wind: 6mph
Humidity: 78%   Direction: 160°SSE
Pressure: 30.35"   Gusts: NA
Location:  40.56°N, 87.89°W
Report Text: KTIP 281050Z AUTO 16005KT 10SM OVC070 M06/M09 A3035 RMK AO2 T10601092
Loading
Personal Weather Stations






























Interactive Weather Map New forecast layout! Learn more

10-Day Weather Forecast

Advertisements
Track Severe Weather on mobile